sensor_id;sensor_type;location;lat;lon;timestamp;pressure;altitude;pressure_sealevel;temperature;humidity
11212;BME280;5663;50.864;12.096;2023-03-19T00:00:54;99107.03;;;10.03;62.01
11212;BME280;5663;50.864;12.096;2023-03-19T00:03:21;99108.69;;;10.04;62.21
11212;BME280;5663;50.864;12.096;2023-03-19T00:05:53;99112.38;;;10.00;61.96
11212;BME280;5663;50.864;12.096;2023-03-19T00:08:21;99093.91;;;9.88;61.84
11212;BME280;5663;50.864;12.096;2023-03-19T00:10:49;99106.25;;;10.01;61.87
11212;BME280;5663;50.864;12.096;2023-03-19T00:13:17;99072.84;;;9.77;62.20
11212;BME280;5663;50.864;12.096;2023-03-19T00:15:45;99102.91;;;9.99;62.23
11212;BME280;5663;50.864;12.096;2023-03-19T00:18:14;99101.31;;;9.96;62.33
11212;BME280;5663;50.864;12.096;2023-03-19T00:20:43;99086.88;;;9.91;62.20
11212;BME280;5663;50.864;12.096;2023-03-19T00:23:11;99095.59;;;9.90;62.55
11212;BME280;5663;50.864;12.096;2023-03-19T00:25:39;99102.38;;;9.92;62.30
11212;BME280;5663;50.864;12.096;2023-03-19T00:28:07;99101.47;;;9.93;62.02
11212;BME280;5663;50.864;12.096;2023-03-19T00:30:35;99104.91;;;9.94;61.64
11212;BME280;5663;50.864;12.096;2023-03-19T00:33:03;99102.31;;;9.94;61.63
11212;BME280;5663;50.864;12.096;2023-03-19T00:35:32;99070.25;;;9.77;61.88
11212;BME280;5663;50.864;12.096;2023-03-19T00:37:59;99097.19;;;9.92;62.23
11212;BME280;5663;50.864;12.096;2023-03-19T00:40:29;99107.66;;;9.91;61.86
11212;BME280;5663;50.864;12.096;2023-03-19T00:42:57;99099.94;;;9.89;62.04
11212;BME280;5663;50.864;12.096;2023-03-19T00:45:25;99087.53;;;9.78;61.88
11212;BME280;5663;50.864;12.096;2023-03-19T00:47:53;99109.34;;;9.92;61.99
11212;BME280;5663;50.864;12.096;2023-03-19T00:50:21;99085.53;;;9.83;62.22
11212;BME280;5663;50.864;12.096;2023-03-19T00:52:51;99102.53;;;9.89;61.83
11212;BME280;5663;50.864;12.096;2023-03-19T00:55:19;99103.16;;;9.94;61.80
11212;BME280;5663;50.864;12.096;2023-03-19T00:57:47;99109.88;;;9.98;61.51
11212;BME280;5663;50.864;12.096;2023-03-19T01:00:15;99105.34;;;10.02;61.32
11212;BME280;5663;50.864;12.096;2023-03-19T01:02:43;99073.47;;;9.82;61.41
11212;BME280;5663;50.864;12.096;2023-03-19T01:05:11;99086.56;;;9.97;61.40
11212;BME280;5663;50.864;12.096;2023-03-19T01:07:38;99097.06;;;10.11;61.37
11212;BME280;5663;50.864;12.096;2023-03-19T01:10:09;99101.16;;;10.15;61.46
11212;BME280;5663;50.864;12.096;2023-03-19T01:12:37;99104.34;;;10.20;60.94
11212;BME280;5663;50.864;12.096;2023-03-19T01:15:06;99101.59;;;10.23;60.72
11212;BME280;5663;50.864;12.096;2023-03-19T01:17:34;99102.31;;;10.27;60.75
11212;BME280;5663;50.864;12.096;2023-03-19T01:20:02;99097.00;;;10.28;60.86
11212;BME280;5663;50.864;12.096;2023-03-19T01:22:30;99099.47;;;10.31;60.79
11212;BME280;5663;50.864;12.096;2023-03-19T01:24:57;99099.47;;;10.31;60.54
11212;BME280;5663;50.864;12.096;2023-03-19T01:27:27;99096.69;;;10.34;60.55
11212;BME280;5663;50.864;12.096;2023-03-19T01:33:24;99091.66;;;10.31;60.28
11212;BME280;5663;50.864;12.096;2023-03-19T01:35:52;99100.28;;;10.32;60.86
11212;BME280;5663;50.864;12.096;2023-03-19T01:38:19;99096.19;;;10.28;61.00
11212;BME280;5663;50.864;12.096;2023-03-19T01:40:47;99084.25;;;10.24;60.98
11212;BME280;5663;50.864;12.096;2023-03-19T01:43:19;99096.41;;;10.23;60.77
11212;BME280;5663;50.864;12.096;2023-03-19T01:45:49;99094.78;;;10.21;61.20
11212;BME280;5663;50.864;12.096;2023-03-19T01:48:23;99100.00;;;10.21;61.28
11212;BME280;5663;50.864;12.096;2023-03-19T01:50:52;99105.28;;;10.19;61.17
11212;BME280;5663;50.864;12.096;2023-03-19T01:53:24;99104.50;;;10.17;61.53
11212;BME280;5663;50.864;12.096;2023-03-19T01:55:56;99102.09;;;10.14;61.32
11212;BME280;5663;50.864;12.096;2023-03-19T01:58:28;99103.00;;;10.13;61.50
11212;BME280;5663;50.864;12.096;2023-03-19T02:00:56;99101.31;;;10.12;61.88
11212;BME280;5663;50.864;12.096;2023-03-19T02:03:25;99089.75;;;10.02;62.25
11212;BME280;5663;50.864;12.096;2023-03-19T02:05:54;99096.69;;;10.01;62.29
11212;BME280;5663;50.864;12.096;2023-03-19T02:08:23;99094.03;;;10.03;62.50
11212;BME280;5663;50.864;12.096;2023-03-19T02:10:52;99098.47;;;10.01;62.29
11212;BME280;5663;50.864;12.096;2023-03-19T02:13:21;99080.03;;;9.90;62.20
11212;BME280;5663;50.864;12.096;2023-03-19T02:15:50;99092.81;;;9.93;62.25
11212;BME280;5663;50.864;12.096;2023-03-19T02:18:18;99086.22;;;9.87;62.36
11212;BME280;5663;50.864;12.096;2023-03-19T02:20:50;99084.84;;;9.80;62.52
11212;BME280;5663;50.864;12.096;2023-03-19T02:23:29;99080.81;;;9.74;62.93
11212;BME280;5663;50.864;12.096;2023-03-19T02:26:06;99093.03;;;9.72;62.79
11212;BME280;5663;50.864;12.096;2023-03-19T02:28:36;99089.75;;;9.69;62.52
11212;BME280;5663;50.864;12.096;2023-03-19T02:31:05;99110.78;;;9.64;62.73
11212;BME280;5663;50.864;12.096;2023-03-19T02:33:33;99075.53;;;9.43;62.95
11212;BME280;5663;50.864;12.096;2023-03-19T02:36:01;99111.16;;;9.56;63.24
11212;BME280;5663;50.864;12.096;2023-03-19T02:38:32;99096.44;;;9.40;63.23
11212;BME280;5663;50.864;12.096;2023-03-19T02:41:01;99097.06;;;9.27;63.43
11212;BME280;5663;50.864;12.096;2023-03-19T02:43:33;99112.31;;;9.33;63.48
11212;BME280;5663;50.864;12.096;2023-03-19T02:46:02;99078.13;;;9.08;63.48
11212;BME280;5663;50.864;12.096;2023-03-19T02:48:31;99109.44;;;9.22;63.38
11212;BME280;5663;50.864;12.096;2023-03-19T02:51:00;99121.78;;;9.17;63.54
11212;BME280;5663;50.864;12.096;2023-03-19T02:53:27;99113.53;;;9.09;63.48
11212;BME280;5663;50.864;12.096;2023-03-19T02:55:55;99117.19;;;9.05;63.88
11212;BME280;5663;50.864;12.096;2023-03-19T02:58:22;99103.22;;;8.90;63.76
11212;BME280;5663;50.864;12.096;2023-03-19T03:00:51;99113.44;;;8.93;63.94
11212;BME280;5663;50.864;12.096;2023-03-19T03:03:19;99108.63;;;8.85;63.64
11212;BME280;5663;50.864;12.096;2023-03-19T03:05:46;99100.19;;;8.63;64.49
11212;BME280;5663;50.864;12.096;2023-03-19T03:08:14;99103.72;;;8.62;64.15
11212;BME280;5663;50.864;12.096;2023-03-19T03:10:42;99064.41;;;8.33;64.32
11212;BME280;5663;50.864;12.096;2023-03-19T03:13:10;99109.47;;;8.50;64.56
11212;BME280;5663;50.864;12.096;2023-03-19T03:15:37;99114.94;;;8.44;64.43
11212;BME280;5663;50.864;12.096;2023-03-19T03:18:06;99082.34;;;8.19;64.45
11212;BME280;5663;50.864;12.096;2023-03-19T03:20:34;99111.91;;;8.34;64.46
11212;BME280;5663;50.864;12.096;2023-03-19T03:23:01;99112.09;;;8.29;64.21
11212;BME280;5663;50.864;12.096;2023-03-19T03:25:29;99120.06;;;8.25;64.06
11212;BME280;5663;50.864;12.096;2023-03-19T03:27:57;99110.84;;;8.19;63.79
11212;BME280;5663;50.864;12.096;2023-03-19T03:30:24;99087.59;;;7.99;64.46
11212;BME280;5663;50.864;12.096;2023-03-19T03:32:52;99081.25;;;7.85;64.78
11212;BME280;5663;50.864;12.096;2023-03-19T03:35:21;99120.97;;;8.05;65.07
11212;BME280;5663;50.864;12.096;2023-03-19T03:37:48;99109.34;;;7.95;64.62
11212;BME280;5663;50.864;12.096;2023-03-19T03:40:17;99087.66;;;7.78;65.28
11212;BME280;5663;50.864;12.096;2023-03-19T03:42:45;99110.53;;;7.87;65.05
11212;BME280;5663;50.864;12.096;2023-03-19T03:45:12;99115.84;;;7.84;65.26
11212;BME280;5663;50.864;12.096;2023-03-19T03:47:40;99112.63;;;7.79;65.05
11212;BME280;5663;50.864;12.096;2023-03-19T03:50:08;99117.06;;;7.76;65.36
11212;BME280;5663;50.864;12.096;2023-03-19T03:52:39;99118.03;;;7.73;65.40
11212;BME280;5663;50.864;12.096;2023-03-19T03:55:08;99118.19;;;7.70;65.96
11212;BME280;5663;50.864;12.096;2023-03-19T03:57:36;99084.53;;;7.50;65.64
11212;BME280;5663;50.864;12.096;2023-03-19T04:00:04;99114.81;;;7.68;65.97
11212;BME280;5663;50.864;12.096;2023-03-19T04:02:32;99113.16;;;7.67;66.00
11212;BME280;5663;50.864;12.096;2023-03-19T04:04:59;99105.50;;;7.64;65.86
11212;BME280;5663;50.864;12.096;2023-03-19T04:07:27;99106.34;;;7.64;65.39
11212;BME280;5663;50.864;12.096;2023-03-19T04:09:57;99106.53;;;7.60;65.64
11212;BME280;5663;50.864;12.096;2023-03-19T04:12:25;99111.72;;;7.60;66.09
11212;BME280;5663;50.864;12.096;2023-03-19T04:14:53;99116.91;;;7.60;65.73
11212;BME280;5663;50.864;12.096;2023-03-19T04:17:21;99120.25;;;7.62;65.99
11212;BME280;5663;50.864;12.096;2023-03-19T04:19:48;99078.22;;;7.36;65.98
11212;BME280;5663;50.864;12.096;2023-03-19T04:22:16;99122.06;;;7.60;66.49
11212;BME280;5663;50.864;12.096;2023-03-19T04:24:44;99119.56;;;7.58;66.29
11212;BME280;5663;50.864;12.096;2023-03-19T04:27:12;99119.56;;;7.58;66.29
11212;BME280;5663;50.864;12.096;2023-03-19T04:29:40;99120.13;;;7.45;66.14
11212;BME280;5663;50.864;12.096;2023-03-19T04:32:08;99130.09;;;7.54;66.26
11212;BME280;5663;50.864;12.096;2023-03-19T04:34:36;99103.19;;;7.37;66.62
11212;BME280;5663;50.864;12.096;2023-03-19T04:37:03;99136.28;;;7.50;66.21
11212;BME280;5663;50.864;12.096;2023-03-19T04:39:31;99135.41;;;7.51;66.68
11212;BME280;5663;50.864;12.096;2023-03-19T04:41:59;99123.16;;;7.34;66.28
11212;BME280;5663;50.864;12.096;2023-03-19T04:44:28;99145.69;;;7.52;66.98
11212;BME280;5663;50.864;12.096;2023-03-19T04:46:56;99143.03;;;7.54;66.96
11212;BME280;5663;50.864;12.096;2023-03-19T04:49:24;99150.03;;;7.52;66.83
11212;BME280;5663;50.864;12.096;2023-03-19T04:51:52;99153.53;;;7.51;66.97
11212;BME280;5663;50.864;12.096;2023-03-19T04:54:19;99148.34;;;7.51;67.10
11212;BME280;5663;50.864;12.096;2023-03-19T04:56:47;99141.16;;;7.37;66.75
11212;BME280;5663;50.864;12.096;2023-03-19T04:59:15;99138.00;;;7.51;67.03
11212;BME280;5663;50.864;12.096;2023-03-19T05:01:45;99144.97;;;7.49;67.27
11212;BME280;5663;50.864;12.096;2023-03-19T05:04:13;99154.47;;;7.48;67.30
11212;BME280;5663;50.864;12.096;2023-03-19T05:06:40;99164.06;;;7.46;66.81
11212;BME280;5663;50.864;12.096;2023-03-19T05:09:08;99168.34;;;7.47;66.86
11212;BME280;5663;50.864;12.096;2023-03-19T05:11:35;99170.91;;;7.47;66.95
11212;BME280;5663;50.864;12.096;2023-03-19T05:14:03;99157.16;;;7.47;66.83
11212;BME280;5663;50.864;12.096;2023-03-19T05:16:30;99161.59;;;7.43;66.73
11212;BME280;5663;50.864;12.096;2023-03-19T05:19:00;99164.94;;;7.45;67.13
11212;BME280;5663;50.864;12.096;2023-03-19T05:21:28;99157.38;;;7.40;67.21
11212;BME280;5663;50.864;12.096;2023-03-19T05:23:55;99166.19;;;7.36;67.70
11212;BME280;5663;50.864;12.096;2023-03-19T05:26:23;99168.13;;;7.31;67.63
11212;BME280;5663;50.864;12.096;2023-03-19T05:28:51;99170.00;;;7.28;67.43
11212;BME280;5663;50.864;12.096;2023-03-19T06:32:56;99203.31;;;7.97;67.47
11212;BME280;5663;50.864;12.096;2023-03-19T06:35:24;99202.94;;;8.06;67.74
11212;BME280;5663;50.864;12.096;2023-03-19T06:37:52;99211.16;;;8.15;67.61
11212;BME280;5663;50.864;12.096;2023-03-19T06:40:19;99201.22;;;8.25;67.63
11212;BME280;5663;50.864;12.096;2023-03-19T06:42:47;99208.59;;;8.34;68.02
11212;BME280;5663;50.864;12.096;2023-03-19T06:45:15;99211.78;;;8.41;67.76
11212;BME280;5663;50.864;12.096;2023-03-19T06:47:44;99211.28;;;8.52;67.75
11212;BME280;5663;50.864;12.096;2023-03-19T06:50:15;99184.69;;;8.48;67.78
11212;BME280;5663;50.864;12.096;2023-03-19T06:52:43;99214.66;;;8.73;67.85
11212;BME280;5663;50.864;12.096;2023-03-19T09:32:55;99243.59;;;16.59;54.72
11212;BME280;5663;50.864;12.096;2023-03-19T09:35:23;99225.47;;;16.67;53.59
11212;BME280;5663;50.864;12.096;2023-03-19T09:37:56;99236.50;;;16.84;53.42
11212;BME280;5663;50.864;12.096;2023-03-19T09:40:26;99240.50;;;16.99;53.56
11212;BME280;5663;50.864;12.096;2023-03-19T09:43:08;99234.03;;;17.14;53.52
11212;BME280;5663;50.864;12.096;2023-03-19T09:45:45;99245.69;;;17.33;52.50
11212;BME280;5663;50.864;12.096;2023-03-19T09:48:18;99237.06;;;17.42;52.59
11212;BME280;5663;50.864;12.096;2023-03-19T09:50:50;99244.38;;;17.59;52.22
11212;BME280;5663;50.864;12.096;2023-03-19T09:53:26;99240.66;;;17.73;51.79
11212;BME280;5663;50.864;12.096;2023-03-19T09:56:01;99245.75;;;17.86;52.03
11212;BME280;5663;50.864;12.096;2023-03-19T09:58:34;99239.47;;;17.98;51.76
11212;BME280;5663;50.864;12.096;2023-03-19T10:01:04;99238.19;;;18.13;51.07
11212;BME280;5663;50.864;12.096;2023-03-19T10:03:42;99243.63;;;18.21;49.91
11212;BME280;5663;50.864;12.096;2023-03-19T10:06:23;99242.16;;;18.29;50.15
11212;BME280;5663;50.864;12.096;2023-03-19T10:09:03;99233.84;;;18.33;49.64
11212;BME280;5663;50.864;12.096;2023-03-19T10:11:47;99243.09;;;18.58;49.67
11212;BME280;5663;50.864;12.096;2023-03-19T10:14:42;99241.56;;;18.77;49.36
11212;BME280;5663;50.864;12.096;2023-03-19T10:17:18;99237.53;;;18.82;49.35
11212;BME280;5663;50.864;12.096;2023-03-19T10:19:50;99238.53;;;18.91;49.24
11212;BME280;5663;50.864;12.096;2023-03-19T10:22:23;99243.28;;;18.97;49.28
11212;BME280;5663;50.864;12.096;2023-03-19T10:24:56;99238.44;;;19.02;48.92
11212;BME280;5663;50.864;12.096;2023-03-19T10:27:25;99225.09;;;18.94;49.26
11212;BME280;5663;50.864;12.096;2023-03-19T10:29:55;99245.56;;;19.11;49.20
11212;BME280;5663;50.864;12.096;2023-03-19T10:32:29;99249.44;;;19.17;49.08
11212;BME280;5663;50.864;12.096;2023-03-19T11:15:21;99282.53;;;19.60;48.37
11212;BME280;5663;50.864;12.096;2023-03-19T11:17:56;99261.97;;;19.44;48.90
11212;BME280;5663;50.864;12.096;2023-03-19T11:20:28;99294.75;;;19.51;48.67
11212;BME280;5663;50.864;12.096;2023-03-19T11:22:57;99292.38;;;19.48;49.31
11212;BME280;5663;50.864;12.096;2023-03-19T11:25:33;99296.94;;;19.46;49.38
11212;BME280;5663;50.864;12.096;2023-03-19T11:28:11;99288.88;;;19.38;49.28
11212;BME280;5663;50.864;12.096;2023-03-19T11:31:19;99298.59;;;19.28;49.10
11212;BME280;5663;50.864;12.096;2023-03-19T11:34:22;99301.75;;;19.22;49.64
11212;BME280;5663;50.864;12.096;2023-03-19T11:36:57;99297.72;;;19.17;49.87
11212;BME280;5663;50.864;12.096;2023-03-19T11:39:36;99300.53;;;19.26;50.14
11212;BME280;5663;50.864;12.096;2023-03-19T11:42:39;99299.13;;;19.22;49.69
11212;BME280;5663;50.864;12.096;2023-03-19T11:45:16;99295.75;;;19.10;49.61
11212;BME280;5663;50.864;12.096;2023-03-19T11:47:55;99301.69;;;19.02;50.42
11212;BME280;5663;50.864;12.096;2023-03-19T11:50:26;99304.88;;;18.96;50.62
11212;BME280;5663;50.864;12.096;2023-03-19T11:53:13;99300.38;;;18.87;50.97
11212;BME280;5663;50.864;12.096;2023-03-19T11:55:49;99304.53;;;18.80;50.96
11212;BME280;5663;50.864;12.096;2023-03-19T12:01:16;99308.00;;;18.80;51.28
11212;BME280;5663;50.864;12.096;2023-03-19T12:04:00;99309.34;;;18.75;51.43
11212;BME280;5663;50.864;12.096;2023-03-19T12:06:42;99293.44;;;18.55;51.90
11212;BME280;5663;50.864;12.096;2023-03-19T12:09:18;99315.19;;;18.57;52.01
11212;BME280;5663;50.864;12.096;2023-03-19T12:11:52;99316.19;;;18.56;52.25
11212;BME280;5663;50.864;12.096;2023-03-19T12:14:31;99300.69;;;18.42;52.36
11212;BME280;5663;50.864;12.096;2023-03-19T16:15:36;99230.31;;;17.60;57.84
11212;BME280;5663;50.864;12.096;2023-03-19T16:18:24;99248.78;;;17.70;57.00
11212;BME280;5663;50.864;12.096;2023-03-19T16:21:06;99257.03;;;17.77;57.22
11212;BME280;5663;50.864;12.096;2023-03-19T16:23:39;99258.69;;;17.78;56.39
11212;BME280;5663;50.864;12.096;2023-03-19T16:26:15;99257.03;;;17.77;56.47
11212;BME280;5663;50.864;12.096;2023-03-19T16:28:46;99248.66;;;17.71;56.53
11212;BME280;5663;50.864;12.096;2023-03-19T16:31:21;99251.66;;;17.67;56.40
11212;BME280;5663;50.864;12.096;2023-03-19T16:33:50;99261.88;;;17.60;56.49
11212;BME280;5663;50.864;12.096;2023-03-19T16:36:19;99269.28;;;17.55;56.48
11212;BME280;5663;50.864;12.096;2023-03-19T16:39:11;99275.19;;;17.47;56.59
11212;BME280;5663;50.864;12.096;2023-03-19T16:41:40;99269.69;;;17.39;56.54
11212;BME280;5663;50.864;12.096;2023-03-19T16:44:14;99274.63;;;17.33;57.23
11212;BME280;5663;50.864;12.096;2023-03-19T16:46:44;99270.22;;;17.22;57.34
11212;BME280;5663;50.864;12.096;2023-03-19T16:49:11;99268.44;;;17.11;57.56
11212;BME280;5663;50.864;12.096;2023-03-19T16:51:39;99265.25;;;16.96;58.14
11212;BME280;5663;50.864;12.096;2023-03-19T16:54:09;99266.53;;;16.91;58.01
11212;BME280;5663;50.864;12.096;2023-03-19T16:56:36;99269.31;;;16.78;58.09
11212;BME280;5663;50.864;12.096;2023-03-19T16:59:04;99271.06;;;16.66;58.20
11212;BME280;5663;50.864;12.096;2023-03-19T17:01:31;99271.41;;;16.50;58.39
11212;BME280;5663;50.864;12.096;2023-03-19T17:04:12;99268.66;;;16.30;58.59
11212;BME280;5663;50.864;12.096;2023-03-19T17:06:56;99285.06;;;16.09;59.34
11212;BME280;5663;50.864;12.096;2023-03-19T17:09:27;99282.63;;;15.95;59.45
11212;BME280;5663;50.864;12.096;2023-03-19T17:12:17;99276.16;;;15.76;59.58
11212;BME280;5663;50.864;12.096;2023-03-19T17:14:57;99293.91;;;15.60;59.83
11212;BME280;5663;50.864;12.096;2023-03-19T17:17:25;99296.19;;;15.41;59.87
11212;BME280;5663;50.864;12.096;2023-03-19T17:19:54;99271.97;;;15.13;60.31
11212;BME280;5663;50.864;12.096;2023-03-19T17:22:22;99301.94;;;15.09;60.68
11212;BME280;5663;50.864;12.096;2023-03-19T17:24:52;99284.91;;;14.91;60.64
11212;BME280;5663;50.864;12.096;2023-03-19T17:27:22;99272.06;;;14.62;60.73
11212;BME280;5663;50.864;12.096;2023-03-19T17:29:55;99300.75;;;14.51;61.13
11212;BME280;5663;50.864;12.096;2023-03-19T17:32:23;99304.59;;;14.33;61.25
11212;BME280;5663;50.864;12.096;2023-03-19T17:34:51;99311.56;;;14.19;61.40
11212;BME280;5663;50.864;12.096;2023-03-19T17:37:20;99313.34;;;14.06;61.42
11212;BME280;5663;50.864;12.096;2023-03-19T17:39:48;99310.88;;;13.90;61.78
11212;BME280;5663;50.864;12.096;2023-03-19T17:42:17;99319.84;;;13.73;62.37
11212;BME280;5663;50.864;12.096;2023-03-19T17:44:46;99316.44;;;13.59;62.24
11212;BME280;5663;50.864;12.096;2023-03-19T17:47:15;99318.25;;;13.44;62.64
11212;BME280;5663;50.864;12.096;2023-03-19T17:49:43;99323.31;;;13.33;62.75
11212;BME280;5663;50.864;12.096;2023-03-19T17:52:13;99320.50;;;13.21;62.75
11212;BME280;5663;50.864;12.096;2023-03-19T17:54:42;99330.03;;;13.08;63.12
11212;BME280;5663;50.864;12.096;2023-03-19T17:57:12;99322.75;;;12.99;63.19
11212;BME280;5663;50.864;12.096;2023-03-19T17:59:40;99325.19;;;12.88;63.10
11212;BME280;5663;50.864;12.096;2023-03-19T18:02:22;99322.38;;;12.76;63.23
11212;BME280;5663;50.864;12.096;2023-03-19T18:04:50;99321.47;;;12.63;63.26
11212;BME280;5663;50.864;12.096;2023-03-19T18:07:18;99325.34;;;12.56;63.12
11212;BME280;5663;50.864;12.096;2023-03-19T18:09:47;99339.72;;;12.49;63.31
11212;BME280;5663;50.864;12.096;2023-03-19T18:12:14;99343.63;;;12.42;63.54
11212;BME280;5663;50.864;12.096;2023-03-19T18:14:42;99343.22;;;12.33;63.86
11212;BME280;5663;50.864;12.096;2023-03-19T18:17:13;99349.16;;;12.21;64.15
11212;BME280;5663;50.864;12.096;2023-03-19T18:19:43;99333.63;;;12.04;64.04
11212;BME280;5663;50.864;12.096;2023-03-19T18:22:15;99350.97;;;12.05;64.44
11212;BME280;5663;50.864;12.096;2023-03-19T18:24:43;99338.72;;;11.91;64.56
11212;BME280;5663;50.864;12.096;2023-03-19T18:27:12;99310.66;;;11.65;64.53
11212;BME280;5663;50.864;12.096;2023-03-19T18:29:40;99348.63;;;11.84;64.80
11212;BME280;5663;50.864;12.096;2023-03-19T18:32:12;99349.06;;;11.77;64.71
11212;BME280;5663;50.864;12.096;2023-03-19T18:34:41;99320.34;;;11.47;64.89
11212;BME280;5663;50.864;12.096;2023-03-19T18:37:11;99361.00;;;11.65;65.14
11212;BME280;5663;50.864;12.096;2023-03-19T18:39:41;99360.59;;;11.57;65.17
11212;BME280;5663;50.864;12.096;2023-03-19T18:42:09;99368.56;;;11.54;65.18
11212;BME280;5663;50.864;12.096;2023-03-19T18:44:38;99371.34;;;11.51;65.38
11212;BME280;5663;50.864;12.096;2023-03-19T18:47:12;99369.97;;;11.44;65.45
11212;BME280;5663;50.864;12.096;2023-03-19T18:49:40;99346.06;;;11.21;65.51
11212;BME280;5663;50.864;12.096;2023-03-19T18:52:12;99359.06;;;11.21;65.83
11212;BME280;5663;50.864;12.096;2023-03-19T18:54:41;99366.09;;;11.19;65.66
11212;BME280;5663;50.864;12.096;2023-03-19T18:57:09;99372.72;;;11.09;66.27
11212;BME280;5663;50.864;12.096;2023-03-19T18:59:40;99371.28;;;11.03;66.33
11212;BME280;5663;50.864;12.096;2023-03-19T19:02:19;99369.06;;;10.96;66.57
11212;BME280;5663;50.864;12.096;2023-03-19T19:04:48;99360.16;;;10.84;66.61
11212;BME280;5663;50.864;12.096;2023-03-19T19:07:15;99351.47;;;10.68;67.09
11212;BME280;5663;50.864;12.096;2023-03-19T19:09:43;99377.00;;;10.77;67.05
11212;BME280;5663;50.864;12.096;2023-03-19T19:12:12;99383.81;;;10.79;67.24
11212;BME280;5663;50.864;12.096;2023-03-19T19:14:42;99377.91;;;10.76;67.26
11212;BME280;5663;50.864;12.096;2023-03-19T19:17:29;99385.81;;;10.74;67.35
11212;BME280;5663;50.864;12.096;2023-03-19T19:19:58;99362.41;;;10.57;67.15
11212;BME280;5663;50.864;12.096;2023-03-19T19:22:25;99391.94;;;10.73;67.34
11212;BME280;5663;50.864;12.096;2023-03-19T19:24:54;99355.03;;;10.49;67.31
11212;BME280;5663;50.864;12.096;2023-03-19T19:27:23;99393.31;;;10.63;67.58
11212;BME280;5663;50.864;12.096;2023-03-19T19:29:53;99391.31;;;10.68;67.74
11212;BME280;5663;50.864;12.096;2023-03-19T19:32:22;99396.50;;;10.68;67.71
11212;BME280;5663;50.864;12.096;2023-03-19T19:34:50;99403.44;;;10.69;68.14
11212;BME280;5663;50.864;12.096;2023-03-19T19:37:18;99401.56;;;10.71;68.03
11212;BME280;5663;50.864;12.096;2023-03-19T19:39:48;99412.66;;;10.75;68.16
11212;BME280;5663;50.864;12.096;2023-03-19T19:42:18;99409.28;;;10.73;68.21
11212;BME280;5663;50.864;12.096;2023-03-19T19:44:50;99402.66;;;10.67;68.38
11212;BME280;5663;50.864;12.096;2023-03-19T19:47:19;99418.56;;;10.78;68.40
11212;BME280;5663;50.864;12.096;2023-03-19T19:49:47;99399.13;;;10.68;68.63
11212;BME280;5663;50.864;12.096;2023-03-19T19:52:16;99420.38;;;10.76;68.84
11212;BME280;5663;50.864;12.096;2023-03-19T19:54:44;99416.25;;;10.72;68.84
11212;BME280;5663;50.864;12.096;2023-03-19T19:57:14;99401.56;;;10.71;69.06
11212;BME280;5663;50.864;12.096;2023-03-19T19:59:44;99414.09;;;10.80;68.91
11212;BME280;5663;50.864;12.096;2023-03-19T20:02:20;99421.75;;;10.83;69.09
11212;BME280;5663;50.864;12.096;2023-03-19T20:04:47;99413.09;;;10.83;69.14
11212;BME280;5663;50.864;12.096;2023-03-19T20:07:15;99413.03;;;10.84;69.25
11212;BME280;5663;50.864;12.096;2023-03-19T20:09:43;99417.38;;;10.84;69.41
11212;BME280;5663;50.864;12.096;2023-03-19T20:12:20;99419.16;;;10.83;69.73
11212;BME280;5663;50.864;12.096;2023-03-19T20:14:49;99419.25;;;10.82;69.84
